Time;durP1;ratioP1;P1;durP2;ratioP2;P2;SDS_P1;SDS_P2;PMS_P1;PMS_P2;Temp;Humidity;BMP_temperature;BMP_pressure;BME280_temperature;BME280_humidity;BME280_pressure;Samples;Min_cycle;Max_cycle;Signal;HPM_P1;HPM_P2
2021/04/14 00:00:46;;;;;;;;;;;2.90;99.90;;;;;;5113526;28;19930;-77
2021/04/14 00:03:16;;;;;;;;;;;3.00;99.90;;;;;;5113668;28;19904;-77
2021/04/14 00:05:41;;;;;;;;;;;3.00;99.90;;;;;;5095511;28;19904;-76
2021/04/14 00:08:07;;;;;;;;;;;3.10;99.90;;;;;;5113909;28;19957;-77
2021/04/14 00:10:33;;;;;;;;;;;3.20;99.90;;;;;;5095377;28;19903;-77
2021/04/14 00:13:00;;;;;;;;;;;3.30;99.90;;;;;;5094312;28;19911;-77
2021/04/14 00:15:47;;;;;;;;;;;3.30;99.90;;;;;;5113109;28;19908;-76
2021/04/14 00:18:13;;;;;;;;;;;3.40;99.90;;;;;;5095328;28;20007;-77
2021/04/14 00:20:38;;;;;;;;;;;3.50;99.90;;;;;;5095099;28;20292;-77
2021/04/14 00:23:04;;;;;;;;;;;3.60;99.90;;;;;;5113720;28;20006;-77
2021/04/14 00:25:31;;;;;;;;;;;3.50;99.90;;;;;;5095563;28;20362;-77
2021/04/14 00:27:57;;;;;;;;;;;3.60;99.90;;;;;;5113624;28;19910;-76
2021/04/14 00:30:23;;;;;;;;;;;3.60;99.90;;;;;;5114145;28;19998;-78
2021/04/14 00:32:48;;;;;;;;;;;3.60;99.90;;;;;;5113565;28;20435;-77
2021/04/14 00:35:14;;;;;;;;;;;3.50;99.90;;;;;;5113198;28;19907;-76
2021/04/14 00:37:39;;;;;;;;;;;3.50;99.90;;;;;;5095754;28;19902;-77
2021/04/14 00:40:06;;;;;;;;;;;3.50;99.90;;;;;;5113034;28;19950;-76
2021/04/14 00:42:31;;;;;;;;;;;3.40;99.90;;;;;;5095085;28;19939;-76
2021/04/14 00:44:57;;;;;;;;;;;3.40;99.90;;;;;;5094161;28;20334;-76
2021/04/14 00:47:22;;;;;;;;;;;3.40;99.90;;;;;;5113294;28;20272;-76
2021/04/14 00:49:48;;;;;;;;;;;3.20;99.90;;;;;;5095933;28;19912;-76
2021/04/14 00:52:15;;;;;;;;;;;3.10;99.90;;;;;;5101636;28;19925;-76
2021/04/14 00:54:40;;;;;;;;;;;3.00;99.90;;;;;;5108239;28;20425;-76
2021/04/14 00:57:06;;;;;;;;;;;3.00;99.90;;;;;;5130348;28;19910;-76
2021/04/14 00:59:31;;;;;;;;;;;2.80;99.90;;;;;;5126774;28;20351;-76
2021/04/14 01:01:57;;;;;;;;;;;2.70;99.90;;;;;;5113409;28;20363;-76
2021/04/14 01:04:22;;;;;;;;;;;2.60;99.90;;;;;;5112895;28;19903;-76
2021/04/14 01:06:48;;;;;;;;;;;2.60;99.90;;;;;;5112943;28;20015;-76
2021/04/14 01:09:13;;;;;;;;;;;2.50;99.90;;;;;;5117658;28;19903;-78
2021/04/14 01:11:39;;;;;;;;;;;2.50;99.90;;;;;;5097773;28;19942;-76
2021/04/14 01:14:05;;;;;;;;;;;2.50;99.90;;;;;;5114112;28;19910;-76
2021/04/14 01:16:31;;;;;;;;;;;2.50;99.90;;;;;;5095595;28;19907;-77
2021/04/14 01:18:56;;;;;;;;;;;2.40;99.90;;;;;;5112790;28;19907;-75
2021/04/14 01:21:31;;;;;;;;;;;2.20;99.90;;;;;;5096204;28;19908;-77
2021/04/14 01:23:56;;;;;;;;;;;2.20;99.90;;;;;;5095764;28;19904;-76
2021/04/14 01:26:22;;;;;;;;;;;2.20;99.90;;;;;;5118497;28;19914;-76
2021/04/14 01:28:47;;;;;;;;;;;2.20;99.90;;;;;;5116668;28;19918;-76
2021/04/14 01:31:19;;;;;;;;;;;2.20;99.90;;;;;;5098215;28;19903;-77
2021/04/14 01:33:45;;;;;;;;;;;2.20;99.90;;;;;;5099033;28;20264;-76
2021/04/14 01:36:11;;;;;;;;;;;2.10;99.90;;;;;;5117876;28;19911;-78
2021/04/14 01:38:37;;;;;;;;;;;2.20;99.90;;;;;;5097983;28;20415;-76
2021/04/14 01:41:03;;;;;;;;;;;2.10;99.90;;;;;;5098358;28;20386;-76
2021/04/14 01:43:28;;;;;;;;;;;2.00;99.90;;;;;;5116927;28;20294;-76
2021/04/14 01:45:54;;;;;;;;;;;2.00;99.90;;;;;;5119228;28;19951;-77
2021/04/14 01:48:19;;;;;;;;;;;2.00;99.90;;;;;;5097933;28;20278;-76
2021/04/14 01:50:45;;;;;;;;;;;1.90;99.90;;;;;;5117907;28;19910;-76
2021/04/14 01:53:13;;;;;;;;;;;2.00;99.90;;;;;;5097837;28;19911;-76
2021/04/14 01:55:39;;;;;;;;;;;1.90;99.90;;;;;;5116550;28;20279;-76
2021/04/14 01:58:04;;;;;;;;;;;1.90;99.90;;;;;;5097690;28;19904;-76
2021/04/14 02:00:47;;;;;;;;;;;1.80;99.90;;;;;;5101181;28;19904;-77
2021/04/14 02:03:13;;;;;;;;;;;1.80;99.90;;;;;;5101073;28;19904;-76
2021/04/14 02:05:38;;;;;;;;;;;1.90;99.90;;;;;;5115425;28;19915;-76
2021/04/14 02:08:04;;;;;;;;;;;1.90;99.90;;;;;;5115751;28;20366;-76
2021/04/14 02:10:32;;;;;;;;;;;1.90;99.90;;;;;;5097613;28;20289;-76
2021/04/14 02:12:58;;;;;;;;;;;1.80;99.90;;;;;;5097502;28;19904;-76
2021/04/14 02:15:26;;;;;;;;;;;1.80;99.90;;;;;;5096964;28;19908;-76
2021/04/14 02:17:51;;;;;;;;;;;1.80;99.90;;;;;;5115628;28;19904;-76
2021/04/14 02:20:17;;;;;;;;;;;1.80;99.90;;;;;;5115320;28;20289;-76
2021/04/14 02:22:42;;;;;;;;;;;1.80;99.90;;;;;;5097398;28;19910;-76
2021/04/14 02:25:09;;;;;;;;;;;1.70;99.90;;;;;;5096734;28;19908;-76
2021/04/14 02:27:34;;;;;;;;;;;1.60;99.90;;;;;;5115476;28;19904;-76
2021/04/14 02:30:00;;;;;;;;;;;1.50;99.90;;;;;;5096974;28;19937;-76
2021/04/14 02:32:26;;;;;;;;;;;1.50;99.90;;;;;;5115490;28;19904;-76
2021/04/14 02:34:51;;;;;;;;;;;1.50;99.90;;;;;;5114036;28;20382;-76
2021/04/14 02:37:17;;;;;;;;;;;1.60;99.90;;;;;;5096839;28;19960;-76
2021/04/14 02:39:42;;;;;;;;;;;1.50;99.90;;;;;;5096776;28;20275;-77
2021/04/14 02:42:08;;;;;;;;;;;1.50;99.90;;;;;;5115266;28;19907;-76
2021/04/14 02:44:33;;;;;;;;;;;1.60;99.90;;;;;;5114453;28;19904;-76
2021/04/14 02:46:58;;;;;;;;;;;1.70;99.90;;;;;;5115716;28;19911;-77
2021/04/14 02:49:24;;;;;;;;;;;1.60;99.90;;;;;;5096698;28;20426;-76
2021/04/14 02:51:50;;;;;;;;;;;1.60;99.90;;;;;;5097175;28;19904;-76
2021/04/14 02:54:16;;;;;;;;;;;1.70;99.90;;;;;;5096390;28;19991;-76
2021/04/14 02:56:41;;;;;;;;;;;1.50;99.90;;;;;;5097062;28;19994;-77
2021/04/14 02:59:07;;;;;;;;;;;1.60;99.90;;;;;;5102192;28;20367;-78
2021/04/14 03:01:32;;;;;;;;;;;1.60;99.90;;;;;;5107029;28;19952;-77
2021/04/14 03:03:58;;;;;;;;;;;1.60;99.90;;;;;;5102807;28;20006;-78
2021/04/14 03:06:23;;;;;;;;;;;1.60;99.90;;;;;;5115032;28;19903;-76
2021/04/14 03:08:49;;;;;;;;;;;1.70;99.90;;;;;;5115806;28;19903;-76
2021/04/14 03:11:14;;;;;;;;;;;1.80;99.90;;;;;;5115035;28;19910;-76
2021/04/14 03:13:40;;;;;;;;;;;1.80;99.90;;;;;;5115359;28;20040;-77
2021/04/14 03:16:06;;;;;;;;;;;1.80;99.90;;;;;;5114907;28;19907;-77
2021/04/14 03:18:31;;;;;;;;;;;1.80;99.90;;;;;;5096244;28;20002;-77
2021/04/14 03:20:56;;;;;;;;;;;1.80;99.90;;;;;;5096189;28;19911;-76
2021/04/14 03:23:22;;;;;;;;;;;1.80;99.90;;;;;;5096460;28;20347;-77
2021/04/14 03:25:47;;;;;;;;;;;1.80;99.90;;;;;;5114080;28;19982;-77
2021/04/14 03:28:13;;;;;;;;;;;2.10;99.90;;;;;;5114733;28;20331;-76
2021/04/14 03:30:39;;;;;;;;;;;2.10;99.90;;;;;;5096055;28;19904;-76
2021/04/14 03:33:04;;;;;;;;;;;2.00;99.90;;;;;;5114414;28;19998;-76
2021/04/14 03:35:30;;;;;;;;;;;2.20;99.90;;;;;;5114029;28;19957;-77
2021/04/14 03:37:56;;;;;;;;;;;2.20;99.90;;;;;;5114253;28;19904;-76
2021/04/14 03:40:22;;;;;;;;;;;2.20;99.90;;;;;;5114435;28;20038;-77
2021/04/14 03:42:47;;;;;;;;;;;2.20;99.90;;;;;;5096169;28;19912;-76
2021/04/14 03:45:16;;;;;;;;;;;2.20;99.90;;;;;;5095705;28;19956;-76
2021/04/14 03:47:42;;;;;;;;;;;2.30;99.90;;;;;;5095751;28;19903;-77
2021/04/14 03:50:09;;;;;;;;;;;2.30;99.90;;;;;;5095883;28;20290;-77
2021/04/14 03:52:35;;;;;;;;;;;2.30;99.90;;;;;;5113931;28;19919;-76
2021/04/14 03:55:00;;;;;;;;;;;2.50;99.90;;;;;;5095878;28;20048;-77
2021/04/14 03:57:26;;;;;;;;;;;2.50;99.90;;;;;;5097427;28;19904;-76
2021/04/14 03:59:51;;;;;;;;;;;2.50;99.90;;;;;;5108932;28;19971;-76
2021/04/14 04:02:17;;;;;;;;;;;2.40;99.90;;;;;;5129746;28;19904;-76
2021/04/14 04:04:43;;;;;;;;;;;2.40;99.90;;;;;;5129913;28;19903;-77
2021/04/14 04:07:08;;;;;;;;;;;2.40;99.90;;;;;;5121529;28;20402;-79
2021/04/14 04:09:34;;;;;;;;;;;2.30;99.90;;;;;;5095639;28;20278;-76
2021/04/14 04:11:59;;;;;;;;;;;2.40;99.90;;;;;;5114174;28;19926;-75
2021/04/14 04:14:28;;;;;;;;;;;2.50;99.90;;;;;;5095908;28;19904;-77
2021/04/14 04:16:53;;;;;;;;;;;2.50;99.90;;;;;;5095227;28;19994;-77
2021/04/14 04:19:19;;;;;;;;;;;2.50;99.90;;;;;;5095271;28;19946;-76
2021/04/14 04:21:44;;;;;;;;;;;2.50;99.90;;;;;;5113745;28;19908;-77
2021/04/14 04:24:10;;;;;;;;;;;2.50;99.90;;;;;;5113383;28;20002;-76
2021/04/14 04:26:35;;;;;;;;;;;2.60;99.90;;;;;;5113133;28;20417;-77
2021/04/14 04:29:00;;;;;;;;;;;2.60;99.90;;;;;;5095389;28;19904;-76
2021/04/14 04:31:26;;;;;;;;;;;2.70;99.90;;;;;;5096309;28;19943;-78
2021/04/14 04:33:52;;;;;;;;;;;2.60;99.90;;;;;;5095331;28;20433;-76
2021/04/14 04:36:17;;;;;;;;;;;2.60;99.90;;;;;;5114431;28;20010;-78
2021/04/14 04:38:43;;;;;;;;;;;2.60;99.90;;;;;;5116288;28;19903;-78
2021/04/14 04:41:08;;;;;;;;;;;2.70;99.90;;;;;;5095508;28;19912;-77
2021/04/14 04:43:33;;;;;;;;;;;2.70;99.90;;;;;;5094871;28;20259;-77
2021/04/14 04:45:59;;;;;;;;;;;2.70;99.90;;;;;;5112405;28;19910;-77
2021/04/14 04:48:24;;;;;;;;;;;2.70;99.90;;;;;;5111676;28;20045;-77
2021/04/14 04:50:50;;;;;;;;;;;2.70;99.90;;;;;;5111175;28;19908;-77
2021/04/14 04:53:17;;;;;;;;;;;2.70;99.90;;;;;;5111569;28;19904;-77
2021/04/14 04:55:43;;;;;;;;;;;2.80;99.90;;;;;;5093538;28;19908;-77
2021/04/14 04:58:08;;;;;;;;;;;2.90;99.90;;;;;;5111222;28;20374;-77
2021/04/14 05:00:34;;;;;;;;;;;2.80;99.90;;;;;;5093604;28;19904;-76
2021/04/14 05:03:00;;;;;;;;;;;2.90;99.90;;;;;;5111882;28;19907;-76
2021/04/14 05:05:27;;;;;;;;;;;3.00;99.90;;;;;;5093425;28;19910;-77
2021/04/14 05:07:52;;;;;;;;;;;3.10;99.90;;;;;;5093297;28;19939;-77
2021/04/14 05:10:18;;;;;;;;;;;3.10;99.90;;;;;;5111698;28;19958;-77
2021/04/14 05:12:43;;;;;;;;;;;3.10;99.90;;;;;;5111977;28;19907;-77
2021/04/14 05:15:10;;;;;;;;;;;3.10;99.90;;;;;;5093113;28;20346;-76
2021/04/14 05:17:35;;;;;;;;;;;3.20;99.90;;;;;;5112020;28;19914;-75
2021/04/14 05:20:01;;;;;;;;;;;3.10;99.90;;;;;;5111533;28;19998;-77
2021/04/14 05:22:28;;;;;;;;;;;3.10;99.90;;;;;;5111814;28;19903;-77
2021/04/14 05:24:53;;;;;;;;;;;3.20;99.90;;;;;;5093026;28;19908;-77
2021/04/14 05:27:19;;;;;;;;;;;3.30;99.90;;;;;;5111879;28;19948;-76
2021/04/14 05:29:44;;;;;;;;;;;3.40;99.90;;;;;;5079269;28;19994;-76
2021/04/14 05:32:10;;;;;;;;;;;3.40;99.90;;;;;;5090973;28;20434;-76
2021/04/14 05:34:35;;;;;;;;;;;3.50;99.90;;;;;;5072701;28;19995;-77
2021/04/14 05:37:01;;;;;;;;;;;3.60;99.90;;;;;;5075542;28;19915;-76
2021/04/14 05:39:26;;;;;;;;;;;3.40;99.90;;;;;;5091163;28;19904;-76
2021/04/14 05:41:51;;;;;;;;;;;3.50;99.90;;;;;;5090958;28;19908;-77
2021/04/14 05:44:17;;;;;;;;;;;3.40;99.90;;;;;;5091025;28;19986;-76
2021/04/14 05:46:42;;;;;;;;;;;3.50;99.90;;;;;;5072836;28;19908;-77
2021/04/14 05:49:08;;;;;;;;;;;3.50;99.90;;;;;;5090649;28;19915;-75
2021/04/14 05:51:33;;;;;;;;;;;3.60;99.90;;;;;;5090850;28;20011;-76
2021/04/14 05:54:02;;;;;;;;;;;3.50;99.90;;;;;;5072600;28;19904;-78
2021/04/14 05:56:29;;;;;;;;;;;3.70;99.90;;;;;;5090992;28;20232;-76
2021/04/14 05:58:55;;;;;;;;;;;3.70;99.90;;;;;;5073005;28;20320;-76
2021/04/14 06:01:22;;;;;;;;;;;4.00;99.90;;;;;;5091044;28;19904;-75
2021/04/14 06:03:48;;;;;;;;;;;4.10;99.90;;;;;;5072428;28;19927;-76
2021/04/14 06:06:14;;;;;;;;;;;4.40;99.90;;;;;;5073580;28;19908;-76
2021/04/14 06:08:40;;;;;;;;;;;4.60;99.90;;;;;;5075748;28;19991;-76
2021/04/14 06:11:05;;;;;;;;;;;4.70;99.90;;;;;;5100433;28;19910;-76
2021/04/14 06:13:32;;;;;;;;;;;4.90;99.90;;;;;;5114084;28;19908;-77
2021/04/14 06:15:57;;;;;;;;;;;5.20;99.90;;;;;;5113130;28;19955;-76
2021/04/14 06:18:23;;;;;;;;;;;5.20;99.90;;;;;;5113940;28;19962;-78
2021/04/14 06:20:48;;;;;;;;;;;5.60;99.90;;;;;;5114138;28;19915;-77
2021/04/14 06:23:17;;;;;;;;;;;5.90;99.90;;;;;;5114943;28;19908;-79
2021/04/14 06:28:24;;;;;;;;;;;6.30;99.90;;;;;;5097083;28;19912;-77
2021/04/14 06:30:49;;;;;;;;;;;8.30;99.90;;;;;;5110105;28;19914;-77
2021/04/14 06:33:16;;;;;;;;;;;9.50;99.90;;;;;;5100341;28;19923;-77
2021/04/14 06:35:42;;;;;;;;;;;9.30;99.90;;;;;;5107108;28;19914;-77
2021/04/14 06:38:07;;;;;;;;;;;8.90;99.90;;;;;;5112959;28;19904;-77
2021/04/14 06:43:48;;;;;;;3.58;2.55;;;7.40;99.90;;;;;;5116037;28;20007;-77
2021/04/14 06:46:20;;;;;;;4.25;3.30;;;7.30;99.90;;;;;;5075336;28;20399;-78
2021/04/14 06:49:23;;;;;;;2.95;2.17;;;6.80;99.90;;;;;;5096953;28;20024;-78
2021/04/14 06:51:58;;;;;;;5.18;3.63;;;7.30;99.90;;;;;;5097410;28;20048;-78
2021/04/14 06:54:36;;;;;;;7.68;3.97;;;8.60;99.90;;;;;;5074014;28;20023;-78
2021/04/14 06:57:05;;;;;;;;;;;11.10;99.90;;;;;;5075263;28;20395;-76
2021/04/14 06:59:32;;;;;;;;;;;12.90;99.90;;;;;;5100264;28;19911;-77
2021/04/14 07:02:23;;;;;;;8.03;2.87;;;15.00;87.50;;;;;;5116476;28;20357;-78
2021/04/14 07:05:06;;;;;;;4.72;2.22;;;16.50;74.90;;;;;;5113351;28;20043;-76
2021/04/14 07:07:36;;;;;;;3.22;2.42;;;15.90;73.30;;;;;;5114305;28;20243;-77
2021/04/14 07:10:11;;;;;;;4.55;2.80;;;15.40;76.20;;;;;;5114365;28;20012;-79
2021/04/14 07:12:36;;;;;;;3.63;2.17;;;16.80;71.60;;;;;;5115167;28;20394;-78
2021/04/14 07:15:04;;;;;;;3.45;2.80;;;18.40;64.20;;;;;;5113633;28;20019;-77
2021/04/14 07:17:57;;;;;;;2.88;2.03;;;17.80;63.30;;;;;;5095832;28;20052;-77
2021/04/14 07:20:43;;;;;;;2.28;1.83;;;18.50;59.10;;;;;;5094764;28;20375;-76
2021/04/14 07:23:37;;;;;;;2.20;1.98;;;19.40;57.40;;;;;;5094528;28;20417;-76
2021/04/14 07:26:16;;;;;;;3.22;2.33;;;19.50;54.50;;;;;;5113592;28;20028;-79
2021/04/14 07:29:06;;;;;;;5.25;2.55;;;18.70;56.30;;;;;;5113929;28;20051;-78
2021/04/14 07:31:44;;;;;;;2.25;1.88;;;19.60;55.90;;;;;;5095949;28;20028;-79
2021/04/14 07:34:10;;;;;;;6.80;3.13;;;19.30;54.10;;;;;;5094305;28;20035;-77
2021/04/14 07:36:46;;;;;;;2.95;1.77;;;19.20;56.70;;;;;;5096213;28;20031;-79
2021/04/14 07:39:15;;;;;;;3.05;2.17;;;20.70;52.80;;;;;;5094214;28;20020;-77
2021/04/14 07:42:07;;;;;;;5.00;2.10;;;20.50;52.10;;;;;;5095530;28;20038;-76
2021/04/14 07:44:42;;;;;;;3.05;2.13;;;19.70;51.20;;;;;;5095724;28;20023;-77
2021/04/14 07:47:11;;;;;;;3.10;1.95;;;19.60;55.10;;;;;;5117157;28;20103;-77
2021/04/14 07:49:37;;;;;;;4.38;2.70;;;19.50;51.70;;;;;;5093668;28;20032;-78
2021/04/14 07:52:04;;;;;;;3.47;2.13;;;19.60;51.10;;;;;;5087851;28;20023;-79
2021/04/14 07:54:39;;;;;;;3.80;2.28;;;18.10;53.90;;;;;;5093919;28;20058;-75
2021/04/14 07:57:05;;;;;;;2.40;2.08;;;17.80;55.70;;;;;;5074776;28;19997;-77
2021/04/14 07:59:36;;;;;;;;;;;18.20;56.70;;;;;;5092682;28;20098;-77
2021/04/14 08:02:03;;;;;;;;;;;18.10;55.10;;;;;;5074877;28;20005;-77
2021/04/14 08:04:41;;;;;;;3.78;2.42;;;17.30;56.10;;;;;;5091568;28;19911;-77
2021/04/14 08:07:12;;;;;;;8.25;3.95;;;15.40;59.90;;;;;;5075765;28;20032;-76
2021/04/14 08:09:51;;;;;;;;;;;16.90;59.30;;;;;;5094292;28;20432;-78
2021/04/14 08:12:31;;;;;;;;;;;17.20;59.20;;;;;;5096124;28;19903;-79
2021/04/14 08:15:26;;;;;;;2.75;2.00;;;17.50;56.90;;;;;;5091810;28;19910;-76
2021/04/14 08:17:52;;;;;;;2.15;1.85;;;18.40;57.40;;;;;;5113435;28;19908;-77
2021/04/14 08:20:28;;;;;;;3.13;2.00;;;19.30;52.60;;;;;;5087916;28;20510;-76
2021/04/14 08:23:18;;;;;;;2.28;2.05;;;20.20;53.20;;;;;;5093313;28;20032;-77
2021/04/14 08:25:48;;;;;;;2.25;2.05;;;19.10;52.40;;;;;;5075056;28;20051;-78
2021/04/14 08:28:26;;;;;;;1.98;1.83;;;21.10;52.30;;;;;;5076218;28;20491;-79
2021/04/14 08:31:02;;;;;;;1.45;1.35;;;21.80;49.60;;;;;;5074661;28;20024;-77
2021/04/14 08:33:28;;;;;;;5.88;2.40;;;20.90;49.40;;;;;;5092937;28;20050;-77
2021/04/14 08:36:04;;;;;;;1.83;1.48;;;20.40;48.70;;;;;;5112484;28;20413;-78
2021/04/14 08:38:31;;;;;;;5.20;2.78;;;20.60;49.90;;;;;;5094504;28;20115;-76
2021/04/14 08:41:03;;;;;;;3.13;1.90;;;21.30;49.50;;;;;;5112523;28;20560;-76
2021/04/14 08:43:41;;;;;;;1.80;1.27;;;20.80;49.40;;;;;;5111640;28;20028;-78
2021/04/14 08:46:21;;;;;;;1.67;1.45;;;20.60;45.90;;;;;;5090472;28;20031;-76
2021/04/14 08:48:53;;;;;;;1.80;1.48;;;22.00;47.50;;;;;;5073708;28;20020;-77
2021/04/14 08:51:20;;;;;;;3.97;1.40;;;22.00;45.70;;;;;;5081467;28;20394;-76
2021/04/14 08:53:47;;;;;;;2.65;1.23;;;22.70;46.30;;;;;;5102808;28;20040;-76
2021/04/14 08:56:13;;;;;;;4.60;1.52;;;22.20;45.80;;;;;;5100144;28;20054;-77
2021/04/14 08:58:39;;;;;;;1.40;0.90;;;22.40;44.60;;;;;;5097934;28;20090;-77
2021/04/14 09:01:11;;;;;;;1.52;1.08;;;22.10;44.50;;;;;;5074213;28;20477;-77
2021/04/14 09:03:40;;;;;;;3.08;1.35;;;21.10;46.50;;;;;;5074112;28;20469;-79
2021/04/14 09:06:08;;;;;;;1.63;1.00;;;22.30;44.80;;;;;;5092970;28;20028;-78
2021/04/14 09:08:34;;;;;;;1.95;0.80;;;23.20;44.80;;;;;;5097646;28;20110;-77
2021/04/14 09:11:01;;;;;;;1.27;0.90;;;22.30;43.30;;;;;;5093466;28;20355;-78
2021/04/14 09:13:33;;;;;;;2.17;0.90;;;22.40;43.70;;;;;;5094257;28;20031;-78
2021/04/14 09:16:01;;;;;;;2.47;1.40;;;22.90;43.60;;;;;;5112904;28;20386;-79
2021/04/14 09:18:29;;;;;;;2.67;1.40;;;22.50;41.40;;;;;;5114127;28;20024;-77
2021/04/14 09:21:13;;;;;;;2.67;1.83;;;23.50;42.10;;;;;;5082406;28;20080;-77
2021/04/14 09:23:56;;;;;;;2.83;1.38;;;22.40;42.30;;;;;;5090934;28;20028;-76
2021/04/14 09:26:24;;;;;;;;;;;17.50;47.30;;;;;;5073607;28;20034;-78
2021/04/14 09:28:50;;;;;;;;;;;14.60;54.40;;;;;;5073970;28;19908;-76
2021/04/14 09:31:27;;;;;;;;;;;12.70;55.60;;;;;;5110362;28;20335;-76
2021/04/14 09:33:53;;;;;;;;;;;12.00;56.70;;;;;;5093202;28;19915;-76
2021/04/14 09:36:32;;;;;;;;;;;12.20;57.90;;;;;;5111383;28;19961;-77
2021/04/14 09:39:37;;;;;;;;;;;11.60;57.80;;;;;;5111150;28;19949;-76
2021/04/14 09:42:15;;;;;;;2.25;0.90;;;14.40;55.80;;;;;;5010815;28;19906;-78
2021/04/14 09:44:46;;;;;;;0.50;0.50;;;19.10;47.10;;;;;;4994616;28;20040;-78
2021/04/14 09:47:18;;;;;;;1.65;0.60;;;20.20;43.90;;;;;;5055706;28;20051;-79
2021/04/14 09:49:46;;;;;;;0.93;0.80;;;;;;;;;;5103601;28;20020;-79
2021/04/14 09:52:28;;;;;;;3.17;0.95;;;21.90;42.80;;;;;;5107913;28;20424;-77
2021/04/14 09:54:56;;;;;;;1.00;0.88;;;;;;;;;;5123541;27;20015;-78
2021/04/14 09:57:25;;;;;;;2.00;0.85;;;;;;;;;;5104846;28;20049;-78
2021/04/14 09:59:52;;;;;;;1.10;1.00;;;;;;;;;;5102675;28;20012;-79
2021/04/14 10:02:18;;;;;;;;;;;;;;;;;;5086929;28;20023;-78
2021/04/14 10:04:43;;;;;;;;;;;;;;;;;;5105131;28;19911;-78
2021/04/14 10:07:32;;;;;;;1.58;0.93;;;20.50;42.70;;;;;;5104221;28;20359;-78
2021/04/14 10:10:07;;;;;;;;;;;15.50;50.60;;;;;;5086254;28;20024;-77
2021/04/14 10:12:33;;;;;;;1.02;0.90;;;14.90;51.70;;;;;;5084817;28;19904;-76
2021/04/14 10:15:00;;;;;;;;;;;16.40;52.50;;;;;;5083345;28;20479;-76
2021/04/14 10:17:29;;;;;;;2.57;1.30;;;15.00;51.60;;;;;;5087052;28;19904;-75
2021/04/14 10:20:00;;;;;;;;;;;15.00;52.70;;;;;;5085022;28;20019;-76
2021/04/14 10:22:30;;;;;;;;;;;13.80;54.40;;;;;;5101761;28;19939;-76
2021/04/14 10:25:01;;;;;;;1.38;1.00;;;13.60;56.00;;;;;;5083194;28;20003;-76
2021/04/14 10:27:27;;;;;;;;;;;14.00;58.90;;;;;;5101852;28;20051;-77
2021/04/14 10:29:52;;;;;;;;;;;14.30;56.90;;;;;;5103391;28;19908;-76
2021/04/14 10:32:23;;;;;;;;;;;12.90;59.30;;;;;;5085095;28;20280;-78
2021/04/14 10:34:49;;;;;;;;;;;11.80;62.50;;;;;;5084915;28;20251;-76
2021/04/14 10:37:17;;;;;;;;;;;10.90;62.20;;;;;;5082737;28;19956;-76
2021/04/14 10:39:43;;;;;;;;;;;10.10;65.70;;;;;;5100912;28;19904;-78
2021/04/14 10:42:14;;;;;;;;;;;10.30;64.90;;;;;;5114445;28;20048;-76
2021/04/14 10:44:40;;;;;;;;;;;10.80;61.90;;;;;;5095047;28;19954;-76
2021/04/14 10:47:20;;;;;;;;;;;11.10;62.90;;;;;;5094854;28;19946;-76
2021/04/14 10:49:46;;;;;;;;;;;11.60;61.00;;;;;;5095074;28;19945;-76
2021/04/14 10:52:32;;;;;;;;;;;11.50;60.40;;;;;;5090390;28;19903;-77
2021/04/14 10:54:59;;;;;;;;;;;12.10;59.30;;;;;;5082689;28;19934;-76
2021/04/14 10:57:27;;;;;;;;;;;12.30;57.90;;;;;;5102574;28;19975;-76
2021/04/14 10:59:59;;;;;;;;;;;12.60;60.70;;;;;;5108084;28;20004;-77
2021/04/14 11:02:28;;;;;;;;;;;14.00;56.90;;;;;;5089782;28;20444;-76
2021/04/14 11:04:54;;;;;;;;;;;14.10;55.00;;;;;;5094587;28;19973;-75
2021/04/14 11:07:22;;;;;;;;;;;13.50;58.40;;;;;;5095334;28;20358;-77
2021/04/14 11:09:49;;;;;;;;;;;13.60;56.80;;;;;;5113411;28;19903;-75
2021/04/14 11:12:22;;;;;;;1.65;1.02;;;14.50;55.10;;;;;;5090512;28;20190;-77
2021/04/14 11:14:51;;;;;;;1.50;0.80;;;16.80;50.70;;;;;;5105998;28;20103;-78
2021/04/14 11:17:21;;;;;;;1.15;0.60;;;17.30;49.80;;;;;;5096439;28;20073;-78
2021/04/14 11:19:56;;;;;;;1.40;1.25;;;19.10;47.90;;;;;;5113163;28;20432;-78
2021/04/14 11:22:22;;;;;;;1.85;1.33;;;19.30;46.50;;;;;;5095538;28;20080;-78
2021/04/14 11:24:51;;;;;;;0.52;0.52;;;19.60;46.10;;;;;;5095583;28;20067;-78
2021/04/14 11:27:23;;;;;;;;;;;19.30;44.00;;;;;;5114116;28;20033;-77
2021/04/14 11:29:49;;;;;;;1.45;0.73;;;19.80;44.40;;;;;;5111695;28;19914;-77
2021/04/14 11:32:21;;;;;;;3.92;0.93;;;20.00;41.60;;;;;;5095555;28;20023;-76
2021/04/14 11:35:17;;;;;;;0.77;0.75;;;17.50;42.90;;;;;;5112783;28;20460;-77
2021/04/14 11:37:47;;;;;;;0.57;0.57;;;14.80;48.50;;;;;;5112988;28;20035;-77
2021/04/14 11:40:18;;;;;;;;;;;13.00;52.90;;;;;;5114622;28;20103;-77
2021/04/14 11:43:03;;;;;;;;;;;12.20;54.20;;;;;;5115270;28;19910;-77
2021/04/14 11:45:32;;;;;;;;;;;11.20;56.80;;;;;;5093984;28;20278;-77
2021/04/14 11:48:10;;;;;;;;;;;10.70;57.90;;;;;;5106035;28;20003;-77
2021/04/14 11:50:37;;;;;;;;;;;10.50;57.80;;;;;;5073920;28;19927;-77
2021/04/14 11:53:14;;;;;;;;;;;10.50;58.90;;;;;;5073890;28;20009;-78
2021/04/14 11:55:39;;;;;;;;;;;10.50;56.20;;;;;;5091982;28;20341;-77
2021/04/14 11:58:19;;;;;;;;;;;10.40;54.70;;;;;;5092057;28;19908;-77
2021/04/14 12:00:45;;;;;;;;;;;10.40;58.90;;;;;;5091637;28;20003;-78
2021/04/14 12:03:19;;;;;;;;;;;10.90;58.60;;;;;;5092483;28;20003;-77
2021/04/14 12:05:47;;;;;;;;;;;10.90;57.40;;;;;;5091944;28;20274;-75
2021/04/14 12:08:12;;;;;;;;;;;10.60;57.60;;;;;;5091530;28;19908;-75
2021/04/14 12:10:38;;;;;;;;;;;10.20;59.40;;;;;;5091725;28;19911;-75
2021/04/14 12:13:03;;;;;;;;;;;10.20;59.80;;;;;;5091496;28;19904;-76
2021/04/14 12:15:29;;;;;;;;;;;10.20;59.30;;;;;;5072413;28;19911;-76
2021/04/14 12:17:54;;;;;;;;;;;10.00;58.10;;;;;;5091397;28;19904;-75
2021/04/14 12:20:20;;;;;;;;;;;9.70;58.50;;;;;;5073480;28;19904;-76
2021/04/14 12:22:45;;;;;;;;;;;9.60;60.90;;;;;;5091600;28;19911;-75
2021/04/14 12:25:11;;;;;;;;;;;9.70;59.70;;;;;;5090691;28;20260;-76
2021/04/14 12:27:37;;;;;;;;;;;9.60;60.20;;;;;;5091976;28;20086;-76
2021/04/14 12:30:04;;;;;;;;;;;9.70;60.40;;;;;;5074441;28;19904;-76
2021/04/14 12:32:29;;;;;;;;;;;9.80;58.90;;;;;;5091340;28;19908;-74
2021/04/14 12:34:55;;;;;;;;;;;9.50;58.80;;;;;;5073684;28;20007;-75
2021/04/14 12:37:20;;;;;;;;;;;9.70;60.10;;;;;;5075104;28;19953;-75
2021/04/14 12:39:46;;;;;;;;;;;9.80;58.10;;;;;;5092007;28;19920;-76
2021/04/14 12:42:12;;;;;;;;;;;9.90;56.50;;;;;;5092877;28;19996;-75
2021/04/14 12:44:37;;;;;;;;;;;10.20;58.70;;;;;;5076386;28;19904;-76
2021/04/14 12:47:10;;;;;;;;;;;10.00;58.50;;;;;;5095580;28;19929;-78
2021/04/14 12:49:37;;;;;;;;;;;10.10;59.40;;;;;;5096005;28;19904;-77
2021/04/14 12:52:05;;;;;;;;;;;10.30;59.20;;;;;;5099122;28;20418;-76
2021/04/14 12:54:38;;;;;;;;;;;10.70;57.40;;;;;;5093811;28;19904;-76
2021/04/14 12:57:06;;;;;;;;;;;10.70;55.00;;;;;;5107053;28;19908;-77
2021/04/14 12:59:39;;;;;;;;;;;10.60;57.60;;;;;;5073792;28;20420;-76
2021/04/14 13:02:10;;;;;;;;;;;10.80;54.80;;;;;;5088519;28;19907;-77
2021/04/14 13:04:35;;;;;;;;;;;11.10;53.10;;;;;;5086418;28;19912;-79
2021/04/14 13:07:07;;;;;;;;;;;10.70;54.80;;;;;;5084368;28;19908;-77
2021/04/14 13:09:33;;;;;;;;;;;10.80;53.50;;;;;;5075392;28;19908;-78
2021/04/14 13:12:01;;;;;;;;;;;10.80;55.40;;;;;;5103817;28;20298;-77
2021/04/14 13:14:27;;;;;;;;;;;11.20;54.40;;;;;;5073779;28;20003;-77
2021/04/14 13:16:56;;;;;;;;;;;10.70;54.20;;;;;;5097595;28;19994;-77
2021/04/14 13:19:22;;;;;;;;;;;10.70;54.10;;;;;;5112675;28;20319;-76
2021/04/14 13:21:54;;;;;;;;;;;11.00;53.00;;;;;;5116682;28;19947;-76
2021/04/14 13:24:33;;;;;;;;;;;11.30;54.00;;;;;;5097297;28;20002;-76
2021/04/14 13:27:05;;;;;;;;;;;11.20;50.90;;;;;;5078374;28;19955;-76
2021/04/14 13:29:32;;;;;;;;;;;11.20;51.00;;;;;;5078086;28;19910;-76
2021/04/14 13:32:02;;;;;;;;;;;11.00;52.10;;;;;;5096671;28;20257;-76
2021/04/14 13:34:31;;;;;;;;;;;10.70;50.90;;;;;;5104683;28;19915;-78
2021/04/14 13:37:09;;;;;;;1.25;0.90;;;10.70;51.10;;;;;;5102462;28;19908;-78
2021/04/14 13:39:58;;;;;;;1.58;0.63;;;11.20;54.00;;;;;;5102493;28;20032;-76
2021/04/14 13:42:37;;;;;;;1.73;1.08;;;11.80;51.20;;;;;;5071099;28;20028;-76
2021/04/14 13:45:28;;;;;;;1.90;1.42;;;12.10;49.10;;;;;;5094735;28;20020;-76
2021/04/14 13:48:03;;;;;;;2.35;0.80;;;12.10;51.30;;;;;;5078077;28;20020;-77
2021/04/14 13:50:53;;;;;;;2.83;1.08;;;12.10;49.20;;;;;;5082661;28;20020;-76
2021/04/14 13:53:25;;;;;;;0.50;0.50;;;12.20;51.60;;;;;;5100572;28;20084;-78
2021/04/14 13:56:11;;;;;;;0.98;0.63;;;12.00;49.00;;;;;;5099320;28;20024;-77
2021/04/14 13:58:53;;;;;;;0.70;0.70;;;11.90;49.00;;;;;;5101089;28;20506;-78
2021/04/14 14:01:22;;;;;;;0.93;0.50;;;11.90;50.30;;;;;;5102287;28;20028;-76
2021/04/14 14:03:53;;;;;;;5.18;1.67;;;11.60;51.30;;;;;;5096668;28;20114;-76
2021/04/14 14:06:45;;;;;;;1.45;0.82;;;11.10;51.70;;;;;;5100873;28;20032;-76
2021/04/14 14:09:14;;;;;;;1.02;0.70;;;11.10;49.60;;;;;;5094389;28;20427;-76
2021/04/14 14:11:43;;;;;;;0.80;0.70;;;11.00;48.60;;;;;;5095198;28;20032;-77
2021/04/14 14:14:08;;;;;;;;;;;10.90;50.40;;;;;;5076304;28;20028;-77
2021/04/14 14:16:44;;;;;;;;;;;10.60;51.10;;;;;;5077118;28;19968;-77